Time;durP1;ratioP1;P1;durP2;ratioP2;P2;SDS_P1;SDS_P2;PMS_P1;PMS_P2;Temp;Humidity;BMP_temperature;BMP_pressure;BME280_temperature;BME280_humidity;BME280_pressure;Samples;Min_cycle;Max_cycle;Signal;HPM_P1;HPM_P2
2023/10/21 00:00:01;;;;;;;16.67;8.77;;;23.90;67.60;;;;;;5045650;28;20176;-69
2023/10/21 00:02:28;;;;;;;19.37;8.43;;;23.90;67.60;;;;;;5048765;28;20183;-70
2023/10/21 00:04:55;;;;;;;16.03;8.97;;;24.00;67.10;;;;;;5052354;28;20183;-72
2023/10/21 00:07:22;;;;;;;18.03;9.27;;;24.10;67.70;;;;;;5052950;28;20168;-69
2023/10/21 00:09:50;;;;;;;15.37;9.63;;;24.30;66.70;;;;;;5052193;28;20275;-68
2023/10/21 00:12:17;;;;;;;16.63;10.07;;;24.20;65.40;;;;;;5049399;28;20267;-70
2023/10/21 00:14:44;;;;;;;19.40;10.07;;;24.30;65.40;;;;;;5036455;28;20187;-71
2023/10/21 00:17:12;;;;;;;17.20;10.27;;;24.50;64.90;;;;;;5049468;28;20215;-70
2023/10/21 00:19:39;;;;;;;20.80;10.63;;;24.40;64.60;;;;;;5047675;28;20184;-67
2023/10/21 00:22:06;;;;;;;17.70;10.13;;;24.80;64.10;;;;;;5050114;28;20263;-72
2023/10/21 00:24:36;;;;;;;15.43;10.70;;;24.80;63.50;;;;;;5041699;28;20180;-70
2023/10/21 00:27:04;;;;;;;14.33;10.67;;;24.90;62.80;;;;;;5051743;28;20585;-67
2023/10/21 00:29:31;;;;;;;17.20;11.47;;;24.80;62.30;;;;;;5055599;28;20183;-70
2023/10/21 00:31:58;;;;;;;15.47;9.83;;;24.90;62.20;;;;;;5055329;28;20630;-69
2023/10/21 00:34:26;;;;;;;19.40;11.40;;;24.90;62.60;;;;;;5052776;28;20223;-70
2023/10/21 00:36:53;;;;;;;18.60;12.23;;;25.20;61.80;;;;;;5051726;28;20273;-70
2023/10/21 00:39:22;;;;;;;19.60;10.90;;;25.30;60.60;;;;;;5051324;28;20203;-70
2023/10/21 00:41:49;;;;;;;16.57;11.50;;;25.30;60.30;;;;;;5055550;28;20234;-67
2023/10/21 00:44:17;;;;;;;18.93;10.73;;;25.20;60.40;;;;;;5054380;28;20188;-71
2023/10/21 00:46:44;;;;;;;17.60;11.60;;;25.40;60.80;;;;;;5048555;28;20275;-71
2023/10/21 00:49:14;;;;;;;17.87;12.50;;;25.40;59.30;;;;;;5053126;28;20187;-71
2023/10/21 00:51:42;;;;;;;17.30;12.17;;;25.30;59.10;;;;;;5048855;28;20245;-69
2023/10/21 00:54:10;;;;;;;18.77;11.10;;;25.50;59.10;;;;;;5052919;28;20172;-71
2023/10/21 00:56:38;;;;;;;15.33;10.27;;;25.50;59.50;;;;;;5045138;28;20218;-70
2023/10/21 00:59:05;;;;;;;17.23;10.10;;;25.60;60.00;;;;;;5055085;28;20233;-71
2023/10/21 01:01:35;;;;;;;14.10;10.17;;;25.70;60.00;;;;;;5054841;28;20284;-70
2023/10/21 01:04:04;;;;;;;17.47;9.83;;;25.40;60.60;;;;;;5054624;28;20186;-68
2023/10/21 01:06:33;;;;;;;14.63;10.07;;;25.70;59.90;;;;;;5053033;28;20599;-68
2023/10/21 01:09:00;;;;;;;14.43;8.97;;;25.70;59.60;;;;;;5054545;28;20207;-71
2023/10/21 01:11:28;;;;;;;18.63;10.37;;;25.70;59.40;;;;;;5053761;28;20180;-69
2023/10/21 01:13:56;;;;;;;18.00;9.87;;;25.70;60.20;;;;;;5053752;28;20179;-70
2023/10/21 01:16:23;;;;;;;18.30;11.10;;;25.70;60.20;;;;;;5050647;28;20211;-71
2023/10/21 01:18:51;;;;;;;14.97;10.13;;;25.80;59.20;;;;;;5087013;28;20321;-70
2023/10/21 01:21:18;;;;;;;17.60;10.23;;;25.70;59.30;;;;;;5053145;28;20285;-71
2023/10/21 01:23:46;;;;;;;16.67;10.13;;;25.80;58.40;;;;;;5042176;28;20241;-68
2023/10/21 01:26:13;;;;;;;18.77;11.20;;;25.70;59.20;;;;;;5047728;28;20302;-70
2023/10/21 01:28:41;;;;;;;14.67;9.17;;;26.30;58.10;;;;;;5041224;28;20188;-69
2023/10/21 01:31:08;;;;;;;13.30;10.53;;;26.20;57.40;;;;;;5053837;28;20178;-71
2023/10/21 01:33:35;;;;;;;13.30;9.47;;;26.00;57.90;;;;;;5052445;28;20183;-68
2023/10/21 01:36:03;;;;;;;14.60;9.97;;;26.10;58.10;;;;;;5044111;28;20565;-69
2023/10/21 01:38:30;;;;;;;15.87;10.60;;;25.90;57.70;;;;;;5047504;28;20184;-69
2023/10/21 01:40:57;;;;;;;18.57;10.60;;;25.80;58.70;;;;;;5043633;28;20235;-70
2023/10/21 01:43:25;;;;;;;17.03;11.13;;;26.00;57.10;;;;;;5044497;28;20187;-69
2023/10/21 01:45:55;;;;;;;19.87;11.03;;;26.00;57.60;;;;;;5047570;28;20187;-71
2023/10/21 01:48:23;;;;;;;18.47;11.23;;;26.00;58.00;;;;;;5051725;28;20191;-72
2023/10/21 01:51:05;;;;;;;16.40;10.93;;;26.40;56.80;;;;;;5053076;28;20190;-69
2023/10/21 01:53:32;;;;;;;17.03;10.83;;;26.60;56.60;;;;;;5049983;28;20643;-71
2023/10/21 01:56:03;;;;;;;15.43;10.97;;;26.70;56.80;;;;;;5049979;28;20220;-69
2023/10/21 01:58:32;;;;;;;16.93;11.13;;;26.80;55.40;;;;;;5052675;28;20672;-67
2023/10/21 02:00:59;;;;;;;14.13;10.60;;;26.90;55.60;;;;;;5053833;28;20176;-69
2023/10/21 02:03:28;;;;;;;17.70;11.13;;;26.50;56.50;;;;;;5053876;28;20253;-71
2023/10/21 02:05:55;;;;;;;16.60;11.40;;;26.50;55.90;;;;;;5052064;28;20196;-70
2023/10/21 02:08:23;;;;;;;16.83;11.40;;;26.50;56.10;;;;;;5036571;28;20218;-69
2023/10/21 02:10:50;;;;;;;20.10;10.70;;;26.80;55.00;;;;;;5052799;28;20186;-70
2023/10/21 02:13:17;;;;;;;17.80;10.47;;;26.80;53.90;;;;;;5054248;28;20194;-72
2023/10/21 02:15:45;;;;;;;17.17;10.33;;;26.90;54.70;;;;;;5053278;28;20638;-70
2023/10/21 02:18:12;;;;;;;15.87;10.77;;;26.80;54.90;;;;;;5051709;28;20237;-74
2023/10/21 02:20:40;;;;;;;21.33;10.30;;;26.60;54.90;;;;;;5054027;28;20177;-71
2023/10/21 02:23:07;;;;;;;16.93;10.93;;;26.60;54.80;;;;;;5054546;28;20235;-75
2023/10/21 02:25:34;;;;;;;15.03;9.83;;;26.70;55.30;;;;;;5053299;28;20176;-69
2023/10/21 02:28:03;;;;;;;14.97;9.97;;;26.80;54.30;;;;;;5048129;28;20184;-71
2023/10/21 02:30:30;;;;;;;12.73;9.37;;;26.60;55.80;;;;;;5051967;28;20317;-74
2023/10/21 02:32:57;;;;;;;13.67;8.83;;;26.50;56.30;;;;;;5054044;28;20305;-71
2023/10/21 02:35:25;;;;;;;13.23;8.87;;;26.60;55.90;;;;;;5049668;28;20318;-71
2023/10/21 02:37:52;;;;;;;15.63;9.47;;;26.00;57.20;;;;;;5051859;28;20207;-75
2023/10/21 02:40:20;;;;;;;15.93;7.93;;;26.40;56.70;;;;;;5044160;28;20181;-71
2023/10/21 02:42:47;;;;;;;15.10;8.43;;;26.50;57.10;;;;;;5049263;28;20184;-70
2023/10/21 02:45:15;;;;;;;16.57;8.10;;;26.50;57.20;;;;;;5071247;28;20183;-68
2023/10/21 02:47:42;;;;;;;21.03;8.63;;;26.60;57.00;;;;;;5060894;28;20267;-71
2023/10/21 02:50:10;;;;;;;12.27;8.10;;;27.00;55.60;;;;;;5045972;28;20193;-71
2023/10/21 02:52:37;;;;;;;14.40;8.20;;;26.30;57.40;;;;;;5056499;28;20260;-69
2023/10/21 02:55:06;;;;;;;12.40;7.40;;;26.80;56.40;;;;;;5053612;28;20180;-70
2023/10/21 02:57:34;;;;;;;16.87;7.80;;;26.60;56.90;;;;;;5065093;28;20208;-70
2023/10/21 03:00:01;;;;;;;11.10;7.30;;;26.30;57.30;;;;;;5052899;28;20727;-69
2023/10/21 03:02:29;;;;;;;12.53;7.40;;;26.00;58.40;;;;;;5066153;28;20198;-70
2023/10/21 03:04:58;;;;;;;14.23;6.83;;;26.40;57.50;;;;;;5053491;28;20547;-68
2023/10/21 03:07:26;;;;;;;12.80;6.60;;;26.70;57.00;;;;;;5056082;28;20665;-70
2023/10/21 03:09:53;;;;;;;12.73;6.30;;;26.80;56.90;;;;;;5047222;28;20183;-71
2023/10/21 03:12:20;;;;;;;14.17;6.50;;;26.90;56.70;;;;;;5052129;28;20176;-70
2023/10/21 03:14:48;;;;;;;11.77;5.73;;;27.40;55.60;;;;;;5058509;28;20198;-69
2023/10/21 03:17:15;;;;;;;14.47;5.53;;;26.90;56.70;;;;;;5043154;28;20208;-70
2023/10/21 03:19:42;;;;;;;13.57;6.00;;;26.60;57.70;;;;;;5047070;28;20606;-71
2023/10/21 03:22:10;;;;;;;10.90;5.47;;;26.70;57.30;;;;;;5049052;28;20188;-68
2023/10/21 03:24:37;;;;;;;13.10;5.50;;;26.30;58.70;;;;;;5056678;28;20263;-71
2023/10/21 03:27:04;;;;;;;10.43;4.60;;;26.30;58.40;;;;;;5044935;28;20188;-71
2023/10/21 03:29:32;;;;;;;12.30;4.50;;;26.30;57.90;;;;;;5045734;28;20183;-70
2023/10/21 03:31:59;;;;;;;20.27;4.90;;;25.70;59.70;;;;;;5041835;28;20184;-71
2023/10/21 03:34:27;;;;;;;12.10;4.53;;;25.60;60.10;;;;;;5044001;28;20227;-73
2023/10/21 03:36:54;;;;;;;10.87;4.43;;;25.80;59.20;;;;;;5046390;28;20221;-70
2023/10/21 03:39:21;;;;;;;13.30;4.90;;;26.30;58.40;;;;;;5048903;28;20177;-70
2023/10/21 03:41:49;;;;;;;11.90;4.53;;;26.30;58.90;;;;;;5044804;28;20185;-71
2023/10/21 03:44:16;;;;;;;10.97;4.97;;;26.30;59.70;;;;;;5051534;28;20639;-70
2023/10/21 03:46:45;;;;;;;11.63;5.30;;;25.90;60.80;;;;;;5044105;28;20179;-68
2023/10/21 03:49:12;;;;;;;20.53;5.20;;;25.80;61.00;;;;;;5058695;28;20268;-70
2023/10/21 03:51:40;;;;;;;14.30;5.50;;;25.50;62.30;;;;;;5063003;28;20171;-67
2023/10/21 03:54:07;;;;;;;12.07;5.30;;;25.80;62.20;;;;;;5059002;28;20183;-71
2023/10/21 03:56:34;;;;;;;13.13;5.30;;;25.30;62.90;;;;;;5061061;28;20684;-70
2023/10/21 03:59:02;;;;;;;15.13;5.97;;;25.00;64.80;;;;;;5068982;28;20182;-69
2023/10/21 04:01:30;;;;;;;12.93;6.07;;;24.80;66.30;;;;;;5056075;28;20179;-70
2023/10/21 04:03:58;;;;;;;14.40;6.87;;;24.70;66.60;;;;;;5047472;28;20179;-70
2023/10/21 04:06:25;;;;;;;13.53;6.13;;;24.70;67.10;;;;;;5048712;28;20587;-68
2023/10/21 04:08:52;;;;;;;13.23;6.30;;;25.50;65.10;;;;;;5052281;28;20190;-69
2023/10/21 04:11:21;;;;;;;18.10;6.27;;;25.70;64.50;;;;;;5052211;28;20551;-70
2023/10/21 04:13:48;;;;;;;18.10;7.07;;;26.40;62.50;;;;;;5051646;28;20202;-73
2023/10/21 04:16:15;;;;;;;18.17;6.60;;;26.20;63.40;;;;;;5052476;28;20530;-68
2023/10/21 04:18:43;;;;;;;18.80;7.10;;;26.20;64.60;;;;;;5052510;28;20566;-67
2023/10/21 04:21:10;;;;;;;13.40;6.27;;;26.60;63.00;;;;;;5050873;28;20168;-70
2023/10/21 04:23:37;;;;;;;19.07;7.60;;;26.50;63.30;;;;;;5052085;28;20642;-71
2023/10/21 04:26:05;;;;;;;22.53;8.10;;;26.40;63.50;;;;;;5052266;28;20172;-69
2023/10/21 04:28:33;;;;;;;19.97;7.13;;;26.40;63.50;;;;;;5052427;28;20180;-70
2023/10/21 04:31:01;;;;;;;19.20;6.90;;;26.50;63.40;;;;;;5052091;28;20623;-72
2023/10/21 04:33:28;;;;;;;18.70;7.30;;;26.40;64.10;;;;;;5052414;28;20237;-69
2023/10/21 04:35:56;;;;;;;16.60;6.50;;;26.30;64.60;;;;;;5051730;28;20251;-71
2023/10/21 04:38:23;;;;;;;17.57;7.17;;;26.50;64.50;;;;;;5052426;28;20271;-70
2023/10/21 04:40:50;;;;;;;19.83;7.07;;;26.30;65.00;;;;;;5052069;28;20270;-69
2023/10/21 04:43:18;;;;;;;20.87;6.90;;;26.70;64.90;;;;;;5049761;28;20635;-69
2023/10/21 04:45:45;;;;;;;11.63;6.10;;;26.70;64.60;;;;;;5038462;28;20183;-71
2023/10/21 04:48:12;;;;;;;19.13;6.83;;;26.70;64.50;;;;;;5052287;28;20191;-69
2023/10/21 04:50:40;;;;;;;20.40;6.80;;;26.40;65.80;;;;;;5051827;28;20208;-74
2023/10/21 04:53:07;;;;;;;18.07;6.43;;;26.00;66.90;;;;;;5051824;28;20647;-70
2023/10/21 04:55:34;;;;;;;24.43;7.00;;;25.90;66.90;;;;;;5052072;28;20180;-68
2023/10/21 04:58:02;;;;;;;20.63;6.73;;;25.80;67.40;;;;;;5051978;28;20208;-70
2023/10/21 05:00:29;;;;;;;19.67;6.77;;;25.40;69.50;;;;;;5052287;28;20509;-70
2023/10/21 05:02:56;;;;;;;14.90;5.33;;;25.70;68.20;;;;;;5052361;28;20202;-72
2023/10/21 05:05:24;;;;;;;24.83;6.63;;;25.80;68.20;;;;;;5051886;28;20275;-70
2023/10/21 05:07:51;;;;;;;22.23;5.70;;;25.70;68.90;;;;;;5051389;28;20169;-70
2023/10/21 05:10:18;;;;;;;17.13;5.93;;;25.90;68.20;;;;;;5051738;28;20184;-70
2023/10/21 05:12:46;;;;;;;21.27;5.63;;;25.80;69.20;;;;;;5053922;28;20229;-70
2023/10/21 05:15:13;;;;;;;22.87;6.00;;;26.10;67.70;;;;;;5055297;28;20180;-68
2023/10/21 05:17:40;;;;;;;16.73;5.57;;;25.80;68.80;;;;;;5055420;28;20207;-70
2023/10/21 05:20:08;;;;;;;20.47;5.10;;;25.90;67.70;;;;;;5055615;28;20179;-72
2023/10/21 05:22:36;;;;;;;17.80;5.53;;;25.80;68.60;;;;;;5055420;28;20187;-72
2023/10/21 05:25:03;;;;;;;21.40;5.13;;;25.20;70.50;;;;;;5055488;28;20267;-73
2023/10/21 05:27:30;;;;;;;18.03;4.97;;;24.80;70.90;;;;;;5055279;28;20603;-72
2023/10/21 05:29:58;;;;;;;22.60;6.37;;;24.60;71.60;;;;;;5055084;28;20214;-72
2023/10/21 05:32:25;;;;;;;15.37;5.37;;;24.40;72.80;;;;;;5055216;28;20180;-72
2023/10/21 05:34:52;;;;;;;20.77;6.53;;;25.10;70.50;;;;;;5054862;28;20228;-68
2023/10/21 05:37:20;;;;;;;17.50;5.47;;;25.80;68.40;;;;;;5054759;28;20218;-69
2023/10/21 05:39:47;;;;;;;14.83;5.13;;;25.90;66.90;;;;;;5054922;28;20549;-68
2023/10/21 05:42:16;;;;;;;17.83;5.20;;;25.60;68.40;;;;;;5052964;28;20231;-73
2023/10/21 05:44:43;;;;;;;18.40;5.70;;;25.70;67.80;;;;;;5039464;28;20204;-70
2023/10/21 05:47:10;;;;;;;17.80;5.97;;;26.30;66.60;;;;;;5054842;28;20172;-70
2023/10/21 05:49:38;;;;;;;16.73;5.70;;;25.80;67.20;;;;;;5053477;28;20180;-69
2023/10/21 05:52:05;;;;;;;17.33;5.70;;;26.20;65.90;;;;;;5054519;28;20241;-71
2023/10/21 05:54:33;;;;;;;21.17;6.03;;;26.50;65.20;;;;;;5053600;28;20676;-69
2023/10/21 05:57:00;;;;;;;16.23;5.73;;;26.60;64.90;;;;;;5054617;28;20556;-69
2023/10/21 05:59:27;;;;;;;23.13;7.13;;;26.60;64.10;;;;;;5054528;28;20546;-69
2023/10/21 06:01:55;;;;;;;17.20;5.70;;;26.30;65.10;;;;;;5054406;28;20565;-69
2023/10/21 06:04:22;;;;;;;13.77;5.60;;;26.30;66.10;;;;;;5054486;28;20324;-69
2023/10/21 06:06:55;;;;;;;17.17;5.73;;;26.70;64.90;;;;;;5054184;28;20176;-71
2023/10/21 06:09:23;;;;;;;17.63;5.70;;;26.00;65.70;;;;;;5054080;28;20198;-69
2023/10/21 06:11:51;;;;;;;16.20;5.87;;;25.90;66.90;;;;;;5052749;28;20653;-70
2023/10/21 06:14:19;;;;;;;23.70;6.57;;;25.80;67.50;;;;;;5053135;28;20183;-71
2023/10/21 06:16:46;;;;;;;23.60;6.53;;;25.80;67.60;;;;;;5054321;28;20212;-70
2023/10/21 06:19:14;;;;;;;15.53;6.07;;;25.60;67.60;;;;;;5054211;28;20370;-68
2023/10/21 06:21:41;;;;;;;14.93;6.50;;;25.80;67.60;;;;;;5053799;28;20187;-71
2023/10/21 06:24:09;;;;;;;21.97;6.43;;;26.00;66.90;;;;;;5053618;28;20662;-71
2023/10/21 06:26:39;;;;;;;19.80;6.57;;;25.80;67.80;;;;;;5053877;28;20544;-71
2023/10/21 06:29:06;;;;;;;20.83;6.30;;;25.20;69.90;;;;;;5053962;28;20172;-70
2023/10/21 06:31:34;;;;;;;22.63;7.27;;;25.10;70.40;;;;;;5054172;28;20180;-69
2023/10/21 06:34:01;;;;;;;19.73;7.43;;;25.30;70.40;;;;;;5053804;28;20184;-69
2023/10/21 06:36:28;;;;;;;25.13;7.33;;;25.40;69.60;;;;;;5053607;28;20230;-68
2023/10/21 06:38:57;;;;;;;21.83;6.67;;;25.40;69.30;;;;;;5053687;28;20176;-71
2023/10/21 06:41:24;;;;;;;21.17;7.40;;;25.80;69.50;;;;;;5053751;28;20190;-70
2023/10/21 06:43:52;;;;;;;15.27;7.30;;;26.00;68.00;;;;;;5052391;28;20634;-70
2023/10/21 06:46:19;;;;;;;16.93;7.13;;;25.80;68.90;;;;;;5054105;28;20238;-71
2023/10/21 06:48:47;;;;;;;22.27;7.73;;;25.50;69.10;;;;;;5053659;28;20180;-72
2023/10/21 06:51:14;;;;;;;25.30;8.87;;;24.70;71.80;;;;;;5053500;28;20175;-68
2023/10/21 06:53:41;;;;;;;24.83;7.90;;;24.30;73.20;;;;;;5053390;28;20180;-71
2023/10/21 06:56:13;;;;;;;27.03;8.73;;;24.40;73.10;;;;;;5053352;28;20692;-68
2023/10/21 06:58:40;;;;;;;21.23;7.30;;;24.60;73.30;;;;;;5053308;28;20543;-69
2023/10/21 07:01:08;;;;;;;25.30;6.63;;;24.40;73.20;;;;;;5053405;28;20278;-69
2023/10/21 07:03:36;;;;;;;20.30;6.97;;;23.70;75.70;;;;;;5053369;28;20168;-68
2023/10/21 07:06:04;;;;;;;26.87;7.30;;;23.30;77.10;;;;;;5052427;28;20180;-69
2023/10/21 07:08:33;;;;;;;25.50;6.27;;;23.50;77.30;;;;;;5053049;28;20179;-68
2023/10/21 07:11:00;;;;;;;26.63;6.27;;;23.40;78.00;;;;;;5053503;28;20573;-70
2023/10/21 07:13:28;;;;;;;22.20;6.13;;;23.70;77.80;;;;;;5053311;28;20263;-70
2023/10/21 07:15:55;;;;;;;24.80;6.80;;;23.80;76.60;;;;;;5053515;28;20188;-70
2023/10/21 07:18:22;;;;;;;34.03;6.47;;;23.80;76.80;;;;;;5052902;28;20264;-67
2023/10/21 07:20:57;;;;;;;18.13;5.30;;;24.20;76.10;;;;;;5051652;28;20554;-72
2023/10/21 07:23:24;;;;;;;24.80;5.87;;;23.70;76.60;;;;;;5052721;28;20179;-71
2023/10/21 07:25:53;;;;;;;22.77;5.77;;;23.70;77.40;;;;;;5052882;28;20191;-69
2023/10/21 07:28:21;;;;;;;25.40;5.90;;;23.50;78.30;;;;;;5052625;28;20181;-70
2023/10/21 07:30:48;;;;;;;23.27;4.90;;;23.30;78.80;;;;;;5053235;28;20182;-70
2023/10/21 07:33:16;;;;;;;30.23;5.50;;;23.20;79.60;;;;;;5053113;28;20535;-71
2023/10/21 07:35:43;;;;;;;24.57;5.20;;;23.20;79.50;;;;;;5051931;28;20230;-71
2023/10/21 07:38:11;;;;;;;29.73;4.97;;;23.00;80.50;;;;;;5052735;28;20207;-72
2023/10/21 07:40:38;;;;;;;21.13;5.87;;;22.60;81.90;;;;;;5053295;28;20168;-73
2023/10/21 07:43:05;;;;;;;31.73;6.27;;;22.60;82.00;;;;;;5050024;28;20180;-71
2023/10/21 07:45:33;;;;;;;26.37;6.30;;;22.50;82.50;;;;;;5049280;28;20172;-69
2023/10/21 07:48:02;;;;;;;26.17;5.53;;;22.30;83.10;;;;;;5035173;28;20171;-69
2023/10/21 07:50:29;;;;;;;26.17;5.30;;;22.30;83.30;;;;;;5052103;28;20196;-71
2023/10/21 07:52:58;;;;;;;32.23;7.10;;;22.30;83.40;;;;;;5052783;28;20187;-68
2023/10/21 07:55:25;;;;;;;29.87;6.40;;;22.20;83.80;;;;;;5051644;28;20184;-70
2023/10/21 07:57:53;;;;;;;24.10;4.87;;;22.20;83.80;;;;;;5052367;28;20217;-71
2023/10/21 08:00:20;;;;;;;26.47;5.07;;;22.00;84.20;;;;;;5052617;28;20203;-72
2023/10/21 08:02:48;;;;;;;27.33;5.30;;;21.90;84.50;;;;;;5052430;28;20191;-77
2023/10/21 08:05:16;;;;;;;22.17;4.93;;;21.80;84.80;;;;;;5052624;28;20176;-69
2023/10/21 08:07:43;;;;;;;25.37;4.83;;;21.90;84.80;;;;;;5052148;28;20180;-68
2023/10/21 08:10:10;;;;;;;27.63;5.17;;;21.80;84.90;;;;;;5052543;28;20172;-70
2023/10/21 08:12:39;;;;;;;31.33;5.77;;;21.80;85.10;;;;;;5052360;28;20643;-72
2023/10/21 08:15:10;;;;;;;30.37;6.00;;;21.80;85.20;;;;;;5051332;28;20534;-69
2023/10/21 08:17:38;;;;;;;28.83;5.27;;;21.80;85.30;;;;;;5052403;28;20296;-71
2023/10/21 08:20:06;;;;;;;26.90;5.47;;;21.80;85.20;;;;;;5052467;28;20638;-72
2023/10/21 08:22:34;;;;;;;29.63;6.10;;;21.80;85.30;;;;;;5052403;28;20306;-73
2023/10/21 08:25:02;;;;;;;25.00;4.83;;;21.80;85.20;;;;;;5052521;28;20207;-73
2023/10/21 08:27:29;;;;;;;27.37;6.10;;;21.70;85.30;;;;;;5052221;28;20586;-72
2023/10/21 08:29:56;;;;;;;29.83;5.23;;;21.70;85.50;;;;;;5052014;28;20279;-71
2023/10/21 08:32:24;;;;;;;23.87;5.70;;;21.60;85.60;;;;;;5050971;28;20207;-73
2023/10/21 08:34:51;;;;;;;24.63;5.57;;;21.60;85.70;;;;;;5052024;28;20228;-69
2023/10/21 08:37:18;;;;;;;25.50;5.80;;;21.50;85.70;;;;;;5051899;28;20238;-71
2023/10/21 08:39:48;;;;;;;27.37;6.57;;;21.50;85.70;;;;;;5050834;28;20603;-69
2023/10/21 08:42:18;;;;;;;32.40;5.83;;;21.50;85.80;;;;;;5051974;28;20237;-72
2023/10/21 08:44:50;;;;;;;19.80;5.83;;;21.50;85.70;;;;;;5049654;28;20827;-70
2023/10/21 08:47:18;;;;;;;26.50;5.17;;;21.40;85.70;;;;;;5049561;28;20259;-71
2023/10/21 08:49:48;;;;;;;23.73;5.83;;;21.40;85.50;;;;;;5050938;28;20529;-69
2023/10/21 08:52:16;;;;;;;32.17;6.03;;;21.40;85.50;;;;;;5047896;28;20238;-70
2023/10/21 08:54:45;;;;;;;29.07;5.63;;;21.40;85.40;;;;;;5047252;28;20189;-70
2023/10/21 08:57:13;;;;;;;31.23;5.60;;;21.30;85.40;;;;;;5053536;28;20673;-70
2023/10/21 08:59:41;;;;;;;29.53;5.97;;;21.30;85.60;;;;;;5052098;28;20279;-69
2023/10/21 09:02:08;;;;;;;30.43;6.10;;;21.30;85.40;;;;;;5055812;28;20188;-71
2023/10/21 09:04:36;;;;;;;28.80;5.80;;;21.30;85.50;;;;;;5036088;28;20180;-69
2023/10/21 09:07:04;;;;;;;28.30;5.70;;;21.20;85.40;;;;;;5051967;28;20200;-71
2023/10/21 09:09:32;;;;;;;26.77;6.17;;;21.20;85.30;;;;;;5054910;28;20184;-72
2023/10/21 09:12:14;;;;;;;32.93;6.40;;;21.20;85.30;;;;;;5067003;28;20185;-71
2023/10/21 09:15:02;;;;;;;30.13;6.87;;;21.20;85.20;;;;;;5053839;28;20180;-72
2023/10/21 09:17:38;;;;;;;27.17;5.93;;;21.20;85.00;;;;;;5055656;28;20265;-73
2023/10/21 09:20:13;;;;;;;27.00;6.00;;;21.20;85.00;;;;;;5055061;28;20539;-71
2023/10/21 09:22:42;;;;;;;32.80;6.40;;;21.20;84.90;;;;;;5052994;28;20539;-71
2023/10/21 09:25:19;;;;;;;30.03;6.33;;;21.10;84.90;;;;;;5052934;28;20180;-72
2023/10/21 09:27:57;;;;;;;35.00;6.33;;;21.20;84.90;;;;;;5062195;28;20219;-72
2023/10/21 09:30:30;;;;;;;22.67;5.97;;;21.10;84.90;;;;;;5052259;28;20622;-72
2023/10/21 09:33:09;;;;;;;27.77;6.07;;;21.10;84.90;;;;;;5049741;28;20642;-71
2023/10/21 09:35:37;;;;;;;26.90;6.27;;;21.10;84.90;;;;;;5065658;28;20230;-67
2023/10/21 09:38:20;;;;;;;32.70;7.13;;;21.00;84.80;;;;;;5054593;28;20215;-70
2023/10/21 09:40:48;;;;;;;32.83;6.00;;;21.10;84.90;;;;;;5059855;28;20180;-70
2023/10/21 09:43:18;;;;;;;27.73;6.07;;;21.00;85.10;;;;;;5064235;28;20727;-68
2023/10/21 09:45:46;;;;;;;33.27;7.07;;;21.00;84.90;;;;;;5052801;28;20183;-71
2023/10/21 09:48:13;;;;;;;31.03;5.80;;;21.00;85.10;;;;;;5067662;28;20660;-71
2023/10/21 09:50:49;;;;;;;23.80;5.83;;;21.00;85.10;;;;;;5059312;28;20237;-69
2023/10/21 09:53:25;;;;;;;30.60;5.83;;;21.00;85.10;;;;;;5074347;28;20171;-69
2023/10/21 09:55:55;;;;;;;31.37;6.20;;;20.90;85.10;;;;;;5067404;28;20603;-69
2023/10/21 09:58:26;;;;;;;33.33;7.13;;;20.90;85.10;;;;;;5058993;28;20216;-68
2023/10/21 10:00:55;;;;;;;34.53;7.20;;;20.90;85.10;;;;;;5082376;28;20205;-68
2023/10/21 10:03:23;;;;;;;27.97;6.77;;;20.90;85.10;;;;;;5053232;28;20202;-73
2023/10/21 10:05:51;;;;;;;27.97;6.43;;;20.90;85.10;;;;;;5051732;28;20180;-69
2023/10/21 10:08:19;;;;;;;25.97;6.00;;;20.90;85.10;;;;;;5051709;28;20183;-70
2023/10/21 10:10:48;;;;;;;38.63;8.23;;;20.90;85.10;;;;;;5055517;28;20195;-70
2023/10/21 10:13:18;;;;;;;25.27;5.53;;;20.90;85.10;;;;;;5049625;28;22236;-70
2023/10/21 10:15:45;;;;;;;26.40;6.13;;;20.90;85.20;;;;;;5050859;28;20619;-69
2023/10/21 10:18:19;;;;;;;31.23;7.23;;;20.90;85.10;;;;;;5051343;28;20285;-70
2023/10/21 10:20:49;;;;;;;24.87;6.03;;;20.90;85.30;;;;;;5046416;28;20276;-67
2023/10/21 10:23:18;;;;;;;31.57;6.73;;;20.90;85.30;;;;;;5052172;28;20184;-69
2023/10/21 10:25:51;;;;;;;35.77;6.60;;;20.80;85.50;;;;;;5052795;28;20184;-69
2023/10/21 10:28:28;;;;;;;30.80;7.40;;;20.80;85.40;;;;;;5053654;28;20187;-71
2023/10/21 10:30:56;;;;;;;26.60;6.27;;;20.80;85.50;;;;;;5062681;28;20241;-69
2023/10/21 10:33:38;;;;;;;30.77;6.97;;;20.80;85.60;;;;;;5052195;28;20180;-70
2023/10/21 10:36:06;;;;;;;23.27;5.93;;;20.80;85.60;;;;;;5072456;28;20226;-69
2023/10/21 10:38:44;;;;;;;31.27;6.77;;;20.80;85.80;;;;;;5062921;28;20216;-67
2023/10/21 10:41:16;;;;;;;33.33;6.40;;;20.80;85.80;;;;;;5041589;28;20254;-70
2023/10/21 10:43:51;;;;;;;31.63;6.97;;;20.80;85.90;;;;;;5050764;28;20187;-71
2023/10/21 10:46:23;;;;;;;33.93;6.77;;;20.80;86.10;;;;;;5055087;28;20282;-69
2023/10/21 10:48:53;;;;;;;29.57;6.90;;;20.70;86.00;;;;;;5057828;28;20688;-67
2023/10/21 10:51:38;;;;;;;33.97;6.97;;;20.70;86.20;;;;;;5073659;28;20581;-68
2023/10/21 10:54:06;;;;;;;36.53;8.47;;;20.70;86.20;;;;;;5059415;28;20252;-69
2023/10/21 10:56:46;;;;;;;31.30;6.20;;;20.70;86.30;;;;;;5052908;28;20200;-68
2023/10/21 10:59:23;;;;;;;32.50;7.20;;;20.60;86.40;;;;;;5048112;28;20221;-71
2023/10/21 11:02:01;;;;;;;33.13;6.73;;;20.50;86.40;;;;;;5063215;28;20183;-69
2023/10/21 11:04:32;;;;;;;34.10;7.03;;;20.60;86.60;;;;;;5051584;28;20302;-67
2023/10/21 11:07:03;;;;;;;30.20;6.70;;;20.60;86.50;;;;;;5059689;28;20721;-71
2023/10/21 11:09:30;;;;;;;35.77;6.83;;;20.50;86.70;;;;;;5056847;28;20202;-71
2023/10/21 11:11:58;;;;;;;40.07;7.33;;;20.50;86.80;;;;;;5071100;28;20171;-67
2023/10/21 11:14:27;;;;;;;37.10;8.07;;;20.50;86.80;;;;;;5051855;28;20230;-69
2023/10/21 11:16:55;;;;;;;29.83;6.97;;;20.50;87.00;;;;;;5055490;28;20257;-71
2023/10/21 11:19:24;;;;;;;33.27;6.50;;;20.40;87.10;;;;;;5064116;28;20207;-68
2023/10/21 11:21:51;;;;;;;28.40;6.37;;;20.40;87.10;;;;;;5066639;28;20191;-69
2023/10/21 11:24:19;;;;;;;28.73;7.40;;;20.40;87.30;;;;;;5064719;28;20257;-67
2023/10/21 11:26:49;;;;;;;34.13;7.40;;;20.30;87.30;;;;;;5060628;28;20171;-70
2023/10/21 11:29:17;;;;;;;36.13;7.57;;;20.30;87.40;;;;;;5054518;28;20232;-68
2023/10/21 11:31:45;;;;;;;36.93;7.57;;;20.30;87.60;;;;;;5056494;28;20191;-68
2023/10/21 11:34:18;;;;;;;34.70;7.13;;;20.30;87.50;;;;;;5067128;28;20227;-68
2023/10/21 11:36:50;;;;;;;37.23;8.07;;;20.30;87.70;;;;;;5061056;28;20299;-69
2023/10/21 11:39:21;;;;;;;41.60;8.23;;;20.30;87.70;;;;;;5068852;28;20203;-69
2023/10/21 11:42:00;;;;;;;37.07;7.97;;;20.30;87.80;;;;;;5067839;28;20180;-69
2023/10/21 11:44:32;;;;;;;44.83;7.63;;;20.30;87.90;;;;;;5068752;28;20621;-70
2023/10/21 11:47:06;;;;;;;32.73;7.23;;;20.30;87.90;;;;;;5062361;28;20183;-71
2023/10/21 11:49:39;;;;;;;36.43;7.67;;;20.20;88.00;;;;;;5062287;28;20195;-70
2023/10/21 11:52:09;;;;;;;34.40;7.37;;;20.20;88.10;;;;;;5071526;28;20190;-68
2023/10/21 11:54:46;;;;;;;35.37;7.50;;;20.20;88.10;;;;;;5067289;28;20184;-67
2023/10/21 12:06:03;;;;;;;28.40;7.23;;;20.10;88.40;;;;;;5057738;28;20214;-72
2023/10/21 12:40:33;;;;;;;35.73;9.17;;;19.90;89.10;;;;;;5074896;28;20179;-68
2023/10/21 12:43:23;;;;;;;40.10;9.87;;;19.90;89.20;;;;;;5070253;28;20204;-69
2023/10/21 12:45:53;;;;;;;39.63;9.50;;;19.90;89.20;;;;;;5057229;28;20212;-68
2023/10/21 12:48:21;;;;;;;40.30;9.47;;;19.90;89.20;;;;;;5066623;28;20168;-67
2023/10/21 12:50:52;;;;;;;33.67;9.13;;;19.90;89.20;;;;;;5069961;28;20183;-69
2023/10/21 12:53:20;;;;;;;32.23;8.67;;;19.80;89.20;;;;;;5076088;28;20180;-68
2023/10/21 12:55:50;;;;;;;40.07;9.60;;;19.80;89.30;;;;;;5068519;28;20191;-72
2023/10/21 12:58:17;;;;;;;35.73;9.37;;;19.90;89.30;;;;;;5064266;28;20200;-73
2023/10/21 13:00:45;;;;;;;43.60;10.77;;;19.80;89.20;;;;;;5067772;28;20184;-72
2023/10/21 13:03:13;;;;;;;27.00;8.57;;;19.80;89.20;;;;;;5062845;28;20184;-72
2023/10/21 13:05:46;;;;;;;40.70;9.37;;;19.90;89.20;;;;;;5055200;28;20176;-70
2023/10/21 13:08:13;;;;;;;41.10;10.47;;;19.80;89.10;;;;;;5055399;28;20503;-72
2023/10/21 13:10:40;;;;;;;33.27;10.20;;;19.90;89.10;;;;;;5055518;28;20267;-70
2023/10/21 13:13:11;;;;;;;35.93;9.57;;;19.90;89.10;;;;;;5055227;28;20207;-70
2023/10/21 13:15:38;;;;;;;38.00;9.73;;;19.90;89.10;;;;;;5054053;28;20175;-71
2023/10/21 13:18:07;;;;;;;41.50;10.33;;;20.00;89.10;;;;;;5055194;28;20692;-71
2023/10/21 13:20:35;;;;;;;34.37;9.90;;;19.90;89.00;;;;;;5055007;28;20642;-70
2023/10/21 13:23:04;;;;;;;34.40;10.10;;;19.90;89.00;;;;;;5054959;28;20204;-68